sensor_id;sensor_type;location;lat;lon;timestamp;P1;durP1;ratioP1;P2;durP2;ratioP2
10715;SDS011;5409;42.620;23.316;2022-09-17T00:02:24;7.38;;;2.30;;
10715;SDS011;5409;42.620;23.316;2022-09-17T00:04:51;6.70;;;2.40;;
10715;SDS011;5409;42.620;23.316;2022-09-17T00:07:18;4.85;;;2.00;;
10715;SDS011;5409;42.620;23.316;2022-09-17T00:09:45;4.88;;;2.03;;
10715;SDS011;5409;42.620;23.316;2022-09-17T00:12:13;8.20;;;2.15;;
10715;SDS011;5409;42.620;23.316;2022-09-17T00:14:39;6.40;;;2.20;;
10715;SDS011;5409;42.620;23.316;2022-09-17T00:17:06;4.57;;;1.92;;
10715;SDS011;5409;42.620;23.316;2022-09-17T00:19:33;5.95;;;2.47;;
10715;SDS011;5409;42.620;23.316;2022-09-17T00:22:00;5.38;;;1.67;;
10715;SDS011;5409;42.620;23.316;2022-09-17T00:24:26;4.88;;;1.90;;
10715;SDS011;5409;42.620;23.316;2022-09-17T00:26:53;9.07;;;2.50;;
10715;SDS011;5409;42.620;23.316;2022-09-17T00:29:21;4.35;;;1.88;;
10715;SDS011;5409;42.620;23.316;2022-09-17T00:31:48;8.07;;;2.20;;
10715;SDS011;5409;42.620;23.316;2022-09-17T00:34:15;5.35;;;2.20;;
10715;SDS011;5409;42.620;23.316;2022-09-17T00:36:41;4.07;;;2.00;;
10715;SDS011;5409;42.620;23.316;2022-09-17T00:39:09;5.32;;;1.70;;
10715;SDS011;5409;42.620;23.316;2022-09-17T00:41:37;4.07;;;1.95;;
10715;SDS011;5409;42.620;23.316;2022-09-17T00:47:07;6.20;;;2.65;;
10715;SDS011;5409;42.620;23.316;2022-09-17T00:49:37;4.63;;;1.90;;
10715;SDS011;5409;42.620;23.316;2022-09-17T00:52:05;6.82;;;1.70;;
10715;SDS011;5409;42.620;23.316;2022-09-17T00:54:34;4.60;;;1.98;;
10715;SDS011;5409;42.620;23.316;2022-09-17T00:57:04;5.18;;;2.00;;
10715;SDS011;5409;42.620;23.316;2022-09-17T00:59:31;5.93;;;2.20;;
10715;SDS011;5409;42.620;23.316;2022-09-17T01:01:59;6.43;;;2.25;;
10715;SDS011;5409;42.620;23.316;2022-09-17T01:04:26;6.22;;;2.00;;
10715;SDS011;5409;42.620;23.316;2022-09-17T01:06:55;9.60;;;2.45;;
10715;SDS011;5409;42.620;23.316;2022-09-17T01:09:29;6.63;;;1.90;;
10715;SDS011;5409;42.620;23.316;2022-09-17T01:12:08;5.63;;;1.98;;
10715;SDS011;5409;42.620;23.316;2022-09-17T01:14:59;7.03;;;2.40;;
10715;SDS011;5409;42.620;23.316;2022-09-17T01:17:38;7.53;;;2.22;;
10715;SDS011;5409;42.620;23.316;2022-09-17T01:20:28;6.30;;;2.20;;
10715;SDS011;5409;42.620;23.316;2022-09-17T01:23:14;5.95;;;1.92;;
10715;SDS011;5409;42.620;23.316;2022-09-17T01:26:13;4.97;;;1.98;;
10715;SDS011;5409;42.620;23.316;2022-09-17T01:28:55;5.07;;;1.98;;
10715;SDS011;5409;42.620;23.316;2022-09-17T01:31:34;8.10;;;2.60;;
10715;SDS011;5409;42.620;23.316;2022-09-17T01:34:09;3.78;;;1.95;;
10715;SDS011;5409;42.620;23.316;2022-09-17T01:36:45;7.43;;;2.10;;
10715;SDS011;5409;42.620;23.316;2022-09-17T01:39:26;4.63;;;1.73;;
10715;SDS011;5409;42.620;23.316;2022-09-17T01:42:01;8.63;;;1.83;;
10715;SDS011;5409;42.620;23.316;2022-09-17T01:44:36;7.75;;;1.90;;
10715;SDS011;5409;42.620;23.316;2022-09-17T01:47:12;8.25;;;1.85;;
10715;SDS011;5409;42.620;23.316;2022-09-17T01:49:42;8.52;;;1.90;;
10715;SDS011;5409;42.620;23.316;2022-09-17T01:52:10;4.90;;;1.73;;
10715;SDS011;5409;42.620;23.316;2022-09-17T01:54:41;6.28;;;1.92;;
10715;SDS011;5409;42.620;23.316;2022-09-17T01:57:13;8.77;;;1.70;;
10715;SDS011;5409;42.620;23.316;2022-09-17T01:59:46;7.60;;;1.98;;
10715;SDS011;5409;42.620;23.316;2022-09-17T02:02:19;6.72;;;1.80;;
10715;SDS011;5409;42.620;23.316;2022-09-17T02:04:53;4.22;;;1.42;;
10715;SDS011;5409;42.620;23.316;2022-09-17T02:07:23;8.95;;;2.40;;
10715;SDS011;5409;42.620;23.316;2022-09-17T02:09:51;9.77;;;4.32;;
10715;SDS011;5409;42.620;23.316;2022-09-17T02:12:26;6.55;;;3.80;;
10715;SDS011;5409;42.620;23.316;2022-09-17T02:14:57;8.60;;;4.07;;
10715;SDS011;5409;42.620;23.316;2022-09-17T02:17:30;8.25;;;3.72;;
10715;SDS011;5409;42.620;23.316;2022-09-17T02:20:00;10.27;;;2.60;;
10715;SDS011;5409;42.620;23.316;2022-09-17T02:22:29;6.10;;;2.00;;
10715;SDS011;5409;42.620;23.316;2022-09-17T02:25:02;10.57;;;1.85;;
10715;SDS011;5409;42.620;23.316;2022-09-17T02:27:41;7.72;;;1.75;;
10715;SDS011;5409;42.620;23.316;2022-09-17T02:30:14;3.75;;;1.63;;
10715;SDS011;5409;42.620;23.316;2022-09-17T02:32:43;10.27;;;1.88;;
10715;SDS011;5409;42.620;23.316;2022-09-17T02:35:10;7.32;;;1.98;;
10715;SDS011;5409;42.620;23.316;2022-09-17T02:37:38;6.88;;;1.80;;
10715;SDS011;5409;42.620;23.316;2022-09-17T02:40:06;5.93;;;2.28;;
10715;SDS011;5409;42.620;23.316;2022-09-17T02:42:36;12.07;;;1.90;;
10715;SDS011;5409;42.620;23.316;2022-09-17T02:45:19;4.95;;;1.50;;
10715;SDS011;5409;42.620;23.316;2022-09-17T02:48:16;6.19;;;1.54;;
10715;SDS011;5409;42.620;23.316;2022-09-17T02:51:05;4.07;;;1.95;;
10715;SDS011;5409;42.620;23.316;2022-09-17T02:53:44;7.47;;;2.83;;
10715;SDS011;5409;42.620;23.316;2022-09-17T02:56:19;3.58;;;2.63;;
10715;SDS011;5409;42.620;23.316;2022-09-17T02:58:59;4.80;;;2.88;;
10715;SDS011;5409;42.620;23.316;2022-09-17T03:01:33;8.57;;;2.75;;
10715;SDS011;5409;42.620;23.316;2022-09-17T03:04:07;5.75;;;2.92;;
10715;SDS011;5409;42.620;23.316;2022-09-17T03:06:38;7.93;;;3.13;;
10715;SDS011;5409;42.620;23.316;2022-09-17T03:09:06;3.05;;;1.90;;
10715;SDS011;5409;42.620;23.316;2022-09-17T03:11:33;4.45;;;1.48;;
10715;SDS011;5409;42.620;23.316;2022-09-17T03:13:59;2.85;;;1.40;;
10715;SDS011;5409;42.620;23.316;2022-09-17T03:16:26;6.22;;;1.38;;
10715;SDS011;5409;42.620;23.316;2022-09-17T03:18:53;3.95;;;1.20;;
10715;SDS011;5409;42.620;23.316;2022-09-17T03:21:21;6.63;;;1.67;;
10715;SDS011;5409;42.620;23.316;2022-09-17T03:23:48;6.72;;;1.70;;
10715;SDS011;5409;42.620;23.316;2022-09-17T03:26:14;8.35;;;2.72;;
10715;SDS011;5409;42.620;23.316;2022-09-17T03:28:41;4.85;;;2.47;;
10715;SDS011;5409;42.620;23.316;2022-09-17T03:31:08;3.95;;;1.88;;
10715;SDS011;5409;42.620;23.316;2022-09-17T03:33:34;4.63;;;2.65;;
10715;SDS011;5409;42.620;23.316;2022-09-17T03:36:01;6.80;;;2.30;;
10715;SDS011;5409;42.620;23.316;2022-09-17T03:38:29;5.75;;;2.25;;
10715;SDS011;5409;42.620;23.316;2022-09-17T03:40:58;7.95;;;2.70;;
10715;SDS011;5409;42.620;23.316;2022-09-17T03:43:25;8.18;;;2.20;;
10715;SDS011;5409;42.620;23.316;2022-09-17T03:45:52;7.43;;;2.03;;
10715;SDS011;5409;42.620;23.316;2022-09-17T03:48:19;5.22;;;1.90;;
10715;SDS011;5409;42.620;23.316;2022-09-17T03:50:46;7.43;;;2.25;;
10715;SDS011;5409;42.620;23.316;2022-09-17T03:53:13;4.97;;;2.08;;
10715;SDS011;5409;42.620;23.316;2022-09-17T03:55:41;5.78;;;2.15;;
10715;SDS011;5409;42.620;23.316;2022-09-17T03:58:08;4.25;;;1.77;;
10715;SDS011;5409;42.620;23.316;2022-09-17T04:00:35;4.35;;;1.83;;
10715;SDS011;5409;42.620;23.316;2022-09-17T04:03:02;5.90;;;2.20;;
10715;SDS011;5409;42.620;23.316;2022-09-17T04:05:29;4.45;;;2.42;;
10715;SDS011;5409;42.620;23.316;2022-09-17T04:07:55;4.90;;;1.60;;
10715;SDS011;5409;42.620;23.316;2022-09-17T04:10:22;6.90;;;2.17;;
10715;SDS011;5409;42.620;23.316;2022-09-17T04:12:50;10.07;;;2.10;;
10715;SDS011;5409;42.620;23.316;2022-09-17T04:15:17;7.35;;;2.08;;
10715;SDS011;5409;42.620;23.316;2022-09-17T04:17:43;5.82;;;1.83;;
10715;SDS011;5409;42.620;23.316;2022-09-17T04:20:10;6.97;;;2.15;;
10715;SDS011;5409;42.620;23.316;2022-09-17T04:22:37;7.57;;;2.10;;
10715;SDS011;5409;42.620;23.316;2022-09-17T04:25:04;7.82;;;2.03;;
10715;SDS011;5409;42.620;23.316;2022-09-17T04:27:31;8.57;;;2.42;;
10715;SDS011;5409;42.620;23.316;2022-09-17T04:29:59;8.32;;;2.38;;
10715;SDS011;5409;42.620;23.316;2022-09-17T04:32:26;4.78;;;1.92;;
10715;SDS011;5409;42.620;23.316;2022-09-17T04:34:53;6.07;;;2.30;;
10715;SDS011;5409;42.620;23.316;2022-09-17T04:37:20;4.93;;;2.22;;
10715;SDS011;5409;42.620;23.316;2022-09-17T04:39:47;8.73;;;2.17;;
10715;SDS011;5409;42.620;23.316;2022-09-17T04:42:14;6.35;;;2.25;;
10715;SDS011;5409;42.620;23.316;2022-09-17T04:44:41;5.63;;;2.40;;
10715;SDS011;5409;42.620;23.316;2022-09-17T04:47:09;6.25;;;2.92;;
10715;SDS011;5409;42.620;23.316;2022-09-17T04:49:36;9.57;;;2.67;;
10715;SDS011;5409;42.620;23.316;2022-09-17T04:52:02;5.85;;;3.20;;
10715;SDS011;5409;42.620;23.316;2022-09-17T04:54:29;8.45;;;2.80;;
10715;SDS011;5409;42.620;23.316;2022-09-17T04:56:56;8.02;;;3.08;;
10715;SDS011;5409;42.620;23.316;2022-09-17T04:59:23;5.60;;;2.30;;
10715;SDS011;5409;42.620;23.316;2022-09-17T05:01:49;7.70;;;2.50;;
10715;SDS011;5409;42.620;23.316;2022-09-17T05:04:17;7.80;;;2.55;;
10715;SDS011;5409;42.620;23.316;2022-09-17T05:06:44;9.10;;;2.92;;
10715;SDS011;5409;42.620;23.316;2022-09-17T05:09:11;7.40;;;2.90;;
10715;SDS011;5409;42.620;23.316;2022-09-17T05:11:40;4.85;;;2.80;;
10715;SDS011;5409;42.620;23.316;2022-09-17T05:14:07;4.72;;;2.13;;
10715;SDS011;5409;42.620;23.316;2022-09-17T05:16:33;3.88;;;2.10;;
10715;SDS011;5409;42.620;23.316;2022-09-17T05:19:00;3.13;;;1.98;;
10715;SDS011;5409;42.620;23.316;2022-09-17T05:21:29;4.43;;;2.08;;
10715;SDS011;5409;42.620;23.316;2022-09-17T05:23:56;3.55;;;2.03;;
10715;SDS011;5409;42.620;23.316;2022-09-17T05:26:22;5.65;;;1.55;;
10715;SDS011;5409;42.620;23.316;2022-09-17T05:28:49;5.70;;;1.60;;
10715;SDS011;5409;42.620;23.316;2022-09-17T05:31:16;4.22;;;1.70;;
10715;SDS011;5409;42.620;23.316;2022-09-17T05:33:43;4.55;;;1.27;;
10715;SDS011;5409;42.620;23.316;2022-09-17T05:36:09;4.15;;;1.60;;
10715;SDS011;5409;42.620;23.316;2022-09-17T05:38:37;4.75;;;1.45;;
10715;SDS011;5409;42.620;23.316;2022-09-17T05:41:04;2.70;;;1.67;;
10715;SDS011;5409;42.620;23.316;2022-09-17T05:43:32;6.15;;;1.40;;
10715;SDS011;5409;42.620;23.316;2022-09-17T05:46:02;4.78;;;1.50;;
10715;SDS011;5409;42.620;23.316;2022-09-17T05:48:30;5.10;;;1.65;;
10715;SDS011;5409;42.620;23.316;2022-09-17T05:50:57;1.85;;;1.10;;
10715;SDS011;5409;42.620;23.316;2022-09-17T05:53:24;2.40;;;1.50;;
10715;SDS011;5409;42.620;23.316;2022-09-17T05:55:54;2.70;;;1.83;;
10715;SDS011;5409;42.620;23.316;2022-09-17T05:58:22;3.70;;;1.42;;
10715;SDS011;5409;42.620;23.316;2022-09-17T06:00:49;2.83;;;1.40;;
10715;SDS011;5409;42.620;23.316;2022-09-17T06:03:16;2.58;;;1.38;;
10715;SDS011;5409;42.620;23.316;2022-09-17T06:05:51;2.15;;;1.48;;
10715;SDS011;5409;42.620;23.316;2022-09-17T06:08:19;2.63;;;1.13;;
10715;SDS011;5409;42.620;23.316;2022-09-17T06:10:45;1.55;;;1.10;;
10715;SDS011;5409;42.620;23.316;2022-09-17T06:13:13;2.78;;;1.35;;
10715;SDS011;5409;42.620;23.316;2022-09-17T06:15:40;2.05;;;0.88;;
10715;SDS011;5409;42.620;23.316;2022-09-17T06:18:07;3.13;;;1.20;;
10715;SDS011;5409;42.620;23.316;2022-09-17T06:20:33;2.28;;;1.00;;
10715;SDS011;5409;42.620;23.316;2022-09-17T06:23:00;3.70;;;0.90;;
10715;SDS011;5409;42.620;23.316;2022-09-17T06:25:27;1.83;;;0.73;;
10715;SDS011;5409;42.620;23.316;2022-09-17T06:27:53;1.25;;;0.80;;
10715;SDS011;5409;42.620;23.316;2022-09-17T06:30:22;2.75;;;0.85;;
10715;SDS011;5409;42.620;23.316;2022-09-17T06:32:48;1.67;;;0.73;;
10715;SDS011;5409;42.620;23.316;2022-09-17T06:35:15;2.95;;;2.10;;
10715;SDS011;5409;42.620;23.316;2022-09-17T06:37:42;6.30;;;3.42;;
10715;SDS011;5409;42.620;23.316;2022-09-17T06:40:09;9.02;;;3.30;;
10715;SDS011;5409;42.620;23.316;2022-09-17T06:42:36;9.10;;;3.50;;
10715;SDS011;5409;42.620;23.316;2022-09-17T06:45:03;10.48;;;3.05;;
10715;SDS011;5409;42.620;23.316;2022-09-17T06:47:31;8.13;;;3.30;;
10715;SDS011;5409;42.620;23.316;2022-09-17T06:49:58;9.10;;;4.75;;
10715;SDS011;5409;42.620;23.316;2022-09-17T06:52:25;7.30;;;4.45;;
10715;SDS011;5409;42.620;23.316;2022-09-17T06:54:52;9.70;;;4.50;;
10715;SDS011;5409;42.620;23.316;2022-09-17T06:57:19;9.23;;;4.38;;
10715;SDS011;5409;42.620;23.316;2022-09-17T06:59:46;8.63;;;4.32;;
10715;SDS011;5409;42.620;23.316;2022-09-17T07:02:14;7.63;;;4.10;;
10715;SDS011;5409;42.620;23.316;2022-09-17T07:04:42;6.38;;;3.60;;
10715;SDS011;5409;42.620;23.316;2022-09-17T07:07:08;6.90;;;3.42;;
10715;SDS011;5409;42.620;23.316;2022-09-17T07:09:35;6.35;;;3.00;;
10715;SDS011;5409;42.620;23.316;2022-09-17T07:12:05;8.70;;;3.50;;
10715;SDS011;5409;42.620;23.316;2022-09-17T07:14:33;4.60;;;2.55;;
10715;SDS011;5409;42.620;23.316;2022-09-17T07:16:59;8.75;;;2.80;;
10715;SDS011;5409;42.620;23.316;2022-09-17T07:19:27;6.15;;;2.58;;
10715;SDS011;5409;42.620;23.316;2022-09-17T07:21:55;7.25;;;2.80;;
10715;SDS011;5409;42.620;23.316;2022-09-17T07:24:22;5.32;;;2.28;;
10715;SDS011;5409;42.620;23.316;2022-09-17T07:26:48;5.32;;;2.90;;
10715;SDS011;5409;42.620;23.316;2022-09-17T07:29:15;5.82;;;2.45;;
10715;SDS011;5409;42.620;23.316;2022-09-17T07:31:42;6.25;;;2.72;;
10715;SDS011;5409;42.620;23.316;2022-09-17T07:34:09;4.85;;;1.60;;
10715;SDS011;5409;42.620;23.316;2022-09-17T07:36:36;4.18;;;1.40;;
10715;SDS011;5409;42.620;23.316;2022-09-17T07:39:04;2.55;;;1.63;;
10715;SDS011;5409;42.620;23.316;2022-09-17T07:41:31;8.55;;;2.08;;
10715;SDS011;5409;42.620;23.316;2022-09-17T07:43:58;4.32;;;1.42;;
10715;SDS011;5409;42.620;23.316;2022-09-17T07:46:26;3.03;;;1.60;;
10715;SDS011;5409;42.620;23.316;2022-09-17T07:48:53;5.43;;;1.73;;
10715;SDS011;5409;42.620;23.316;2022-09-17T07:51:20;3.65;;;1.60;;
10715;SDS011;5409;42.620;23.316;2022-09-17T07:53:49;6.18;;;1.90;;
10715;SDS011;5409;42.620;23.316;2022-09-17T07:56:18;4.40;;;1.83;;
10715;SDS011;5409;42.620;23.316;2022-09-17T07:58:45;6.57;;;2.53;;
10715;SDS011;5409;42.620;23.316;2022-09-17T08:01:12;7.25;;;2.83;;
10715;SDS011;5409;42.620;23.316;2022-09-17T08:03:40;7.53;;;3.35;;
10715;SDS011;5409;42.620;23.316;2022-09-17T08:06:08;9.02;;;3.30;;
10715;SDS011;5409;42.620;23.316;2022-09-17T08:08:36;8.00;;;3.45;;
10715;SDS011;5409;42.620;23.316;2022-09-17T08:11:04;6.35;;;3.33;;
10715;SDS011;5409;42.620;23.316;2022-09-17T08:13:34;8.35;;;2.83;;
10715;SDS011;5409;42.620;23.316;2022-09-17T08:16:02;8.20;;;3.40;;
10715;SDS011;5409;42.620;23.316;2022-09-17T08:18:30;4.30;;;2.90;;
10715;SDS011;5409;42.620;23.316;2022-09-17T08:20:57;7.13;;;3.25;;
10715;SDS011;5409;42.620;23.316;2022-09-17T08:23:25;5.50;;;2.92;;
10715;SDS011;5409;42.620;23.316;2022-09-17T08:25:53;12.73;;;3.13;;
10715;SDS011;5409;42.620;23.316;2022-09-17T08:28:20;15.10;;;3.97;;
10715;SDS011;5409;42.620;23.316;2022-09-17T08:30:48;5.53;;;3.47;;
10715;SDS011;5409;42.620;23.316;2022-09-17T08:33:15;6.55;;;2.50;;
10715;SDS011;5409;42.620;23.316;2022-09-17T08:35:42;4.15;;;2.35;;
10715;SDS011;5409;42.620;23.316;2022-09-17T08:38:09;5.18;;;2.50;;
10715;SDS011;5409;42.620;23.316;2022-09-17T08:40:38;5.82;;;2.28;;
10715;SDS011;5409;42.620;23.316;2022-09-17T08:43:15;4.28;;;2.00;;
10715;SDS011;5409;42.620;23.316;2022-09-17T08:45:44;4.63;;;2.55;;
10715;SDS011;5409;42.620;23.316;2022-09-17T08:48:19;8.80;;;2.50;;
10715;SDS011;5409;42.620;23.316;2022-09-17T08:50:47;4.15;;;1.83;;
10715;SDS011;5409;42.620;23.316;2022-09-17T08:53:25;6.47;;;1.90;;
10715;SDS011;5409;42.620;23.316;2022-09-17T08:56:04;5.22;;;1.90;;
10715;SDS011;5409;42.620;23.316;2022-09-17T08:58:39;6.32;;;1.85;;
10715;SDS011;5409;42.620;23.316;2022-09-17T09:01:19;3.63;;;1.98;;
10715;SDS011;5409;42.620;23.316;2022-09-17T09:03:58;8.48;;;2.03;;
10715;SDS011;5409;42.620;23.316;2022-09-17T09:06:35;6.72;;;2.22;;
10715;SDS011;5409;42.620;23.316;2022-09-17T09:09:09;5.80;;;2.10;;
10715;SDS011;5409;42.620;23.316;2022-09-17T09:11:39;5.47;;;2.15;;
10715;SDS011;5409;42.620;23.316;2022-09-17T09:14:10;7.45;;;2.83;;
10715;SDS011;5409;42.620;23.316;2022-09-17T09:16:46;4.70;;;2.53;;
10715;SDS011;5409;42.620;23.316;2022-09-17T09:19:17;6.28;;;2.15;;
10715;SDS011;5409;42.620;23.316;2022-09-17T09:21:49;4.30;;;2.60;;
10715;SDS011;5409;42.620;23.316;2022-09-17T09:24:28;7.85;;;2.78;;
10715;SDS011;5409;42.620;23.316;2022-09-17T09:27:08;5.95;;;2.83;;
10715;SDS011;5409;42.620;23.316;2022-09-17T09:29:43;7.28;;;3.70;;
10715;SDS011;5409;42.620;23.316;2022-09-17T09:32:19;6.35;;;3.38;;
10715;SDS011;5409;42.620;23.316;2022-09-17T09:34:53;8.35;;;3.83;;
10715;SDS011;5409;42.620;23.316;2022-09-17T09:37:22;3.88;;;2.92;;
10715;SDS011;5409;42.620;23.316;2022-09-17T09:39:52;8.88;;;3.60;;
10715;SDS011;5409;42.620;23.316;2022-09-17T09:42:26;10.00;;;3.83;;
10715;SDS011;5409;42.620;23.316;2022-09-17T09:44:56;7.38;;;3.72;;
10715;SDS011;5409;42.620;23.316;2022-09-17T09:47:32;7.20;;;4.03;;
10715;SDS011;5409;42.620;23.316;2022-09-17T09:50:15;10.07;;;4.20;;
10715;SDS011;5409;42.620;23.316;2022-09-17T09:52:52;10.18;;;3.78;;
10715;SDS011;5409;42.620;23.316;2022-09-17T09:55:38;9.85;;;4.93;;
10715;SDS011;5409;42.620;23.316;2022-09-17T09:58:20;9.55;;;5.20;;
10715;SDS011;5409;42.620;23.316;2022-09-17T10:00:56;10.50;;;4.85;;
10715;SDS011;5409;42.620;23.316;2022-09-17T10:03:26;13.30;;;5.72;;
10715;SDS011;5409;42.620;23.316;2022-09-17T10:05:56;9.25;;;5.20;;
10715;SDS011;5409;42.620;23.316;2022-09-17T10:08:25;11.45;;;5.53;;
10715;SDS011;5409;42.620;23.316;2022-09-17T10:10:56;10.43;;;5.97;;
10715;SDS011;5409;42.620;23.316;2022-09-17T10:13:25;11.70;;;5.38;;
10715;SDS011;5409;42.620;23.316;2022-09-17T10:15:53;10.82;;;5.82;;
10715;SDS011;5409;42.620;23.316;2022-09-17T10:18:20;9.18;;;5.20;;
10715;SDS011;5409;42.620;23.316;2022-09-17T10:20:50;6.57;;;4.90;;
10715;SDS011;5409;42.620;23.316;2022-09-17T10:23:23;8.48;;;5.00;;
10715;SDS011;5409;42.620;23.316;2022-09-17T10:25:51;11.10;;;3.25;;
10715;SDS011;5409;42.620;23.316;2022-09-17T10:28:26;4.32;;;2.17;;
10715;SDS011;5409;42.620;23.316;2022-09-17T10:30:58;2.20;;;1.70;;
10715;SDS011;5409;42.620;23.316;2022-09-17T10:33:26;13.65;;;5.80;;
10715;SDS011;5409;42.620;23.316;2022-09-17T10:35:57;1.85;;;0.85;;
10715;SDS011;5409;42.620;23.316;2022-09-17T10:38:30;5.35;;;3.85;;
10715;SDS011;5409;42.620;23.316;2022-09-17T10:41:20;4.13;;;1.00;;
10715;SDS011;5409;42.620;23.316;2022-09-17T10:43:50;1.08;;;0.63;;
10715;SDS011;5409;42.620;23.316;2022-09-17T10:46:18;0.80;;;0.47;;
10715;SDS011;5409;42.620;23.316;2022-09-17T10:48:52;0.70;;;0.40;;
10715;SDS011;5409;42.620;23.316;2022-09-17T10:51:25;1.80;;;0.60;;
10715;SDS011;5409;42.620;23.316;2022-09-17T10:53:58;0.95;;;0.50;;
10715;SDS011;5409;42.620;23.316;2022-09-17T10:56:46;0.95;;;0.40;;
10715;SDS011;5409;42.620;23.316;2022-09-17T10:59:24;0.52;;;0.43;;
10715;SDS011;5409;42.620;23.316;2022-09-17T11:02:07;1.35;;;0.73;;
10715;SDS011;5409;42.620;23.316;2022-09-17T11:04:50;1.95;;;0.45;;
10715;SDS011;5409;42.620;23.316;2022-09-17T11:07:34;0.90;;;0.40;;
10715;SDS011;5409;42.620;23.316;2022-09-17T11:10:13;0.40;;;0.40;;
10715;SDS011;5409;42.620;23.316;2022-09-17T11:13:05;1.35;;;0.40;;
10715;SDS011;5409;42.620;23.316;2022-09-17T11:15:47;1.55;;;0.30;;
10715;SDS011;5409;42.620;23.316;2022-09-17T11:18:38;2.03;;;1.58;;
10715;SDS011;5409;42.620;23.316;2022-09-17T11:24:22;3.30;;;2.28;;
10715;SDS011;5409;42.620;23.316;2022-09-17T11:27:15;3.83;;;2.35;;
10715;SDS011;5409;42.620;23.316;2022-09-17T11:29:59;5.63;;;3.50;;
10715;SDS011;5409;42.620;23.316;2022-09-17T11:32:37;6.28;;;3.22;;
10715;SDS011;5409;42.620;23.316;2022-09-17T11:35:15;4.20;;;2.40;;
10715;SDS011;5409;42.620;23.316;2022-09-17T11:37:47;3.05;;;2.05;;
10715;SDS011;5409;42.620;23.316;2022-09-17T11:40:20;5.40;;;2.15;;
10715;SDS011;5409;42.620;23.316;2022-09-17T11:42:53;6.68;;;2.20;;
10715;SDS011;5409;42.620;23.316;2022-09-17T11:45:26;4.70;;;2.50;;
10715;SDS011;5409;42.620;23.316;2022-09-17T11:47:57;1.73;;;0.60;;
10715;SDS011;5409;42.620;23.316;2022-09-17T11:50:30;1.45;;;0.60;;
10715;SDS011;5409;42.620;23.316;2022-09-17T11:53:03;1.15;;;0.60;;
10715;SDS011;5409;42.620;23.316;2022-09-17T11:55:38;2.40;;;0.70;;
10715;SDS011;5409;42.620;23.316;2022-09-17T11:58:11;3.95;;;0.98;;
10715;SDS011;5409;42.620;23.316;2022-09-17T12:00:43;0.85;;;0.50;;
10715;SDS011;5409;42.620;23.316;2022-09-17T12:03:17;2.13;;;0.40;;
10715;SDS011;5409;42.620;23.316;2022-09-17T12:05:51;0.75;;;0.68;;
10715;SDS011;5409;42.620;23.316;2022-09-17T12:08:21;0.80;;;0.50;;
10715;SDS011;5409;42.620;23.316;2022-09-17T12:10:57;2.65;;;0.75;;
10715;SDS011;5409;42.620;23.316;2022-09-17T12:13:32;0.93;;;0.50;;
10715;SDS011;5409;42.620;23.316;2022-09-17T12:16:10;1.13;;;0.80;;
10715;SDS011;5409;42.620;23.316;2022-09-17T12:18:45;1.55;;;0.80;;
10715;SDS011;5409;42.620;23.316;2022-09-17T12:21:18;1.45;;;0.50;;
10715;SDS011;5409;42.620;23.316;2022-09-17T12:23:50;1.45;;;0.57;;
10715;SDS011;5409;42.620;23.316;2022-09-17T12:26:31;1.35;;;0.45;;
10715;SDS011;5409;42.620;23.316;2022-09-17T12:29:04;0.68;;;0.60;;
10715;SDS011;5409;42.620;23.316;2022-09-17T12:31:46;1.38;;;0.57;;
10715;SDS011;5409;42.620;23.316;2022-09-17T12:34:25;3.30;;;0.55;;
10715;SDS011;5409;42.620;23.316;2022-09-17T12:37:06;1.05;;;0.50;;
10715;SDS011;5409;42.620;23.316;2022-09-17T12:39:54;1.15;;;0.40;;
10715;SDS011;5409;42.620;23.316;2022-09-17T12:42:39;0.93;;;0.47;;
10715;SDS011;5409;42.620;23.316;2022-09-17T12:45:20;2.38;;;0.60;;
10715;SDS011;5409;42.620;23.316;2022-09-17T12:48:07;0.73;;;0.73;;
10715;SDS011;5409;42.620;23.316;2022-09-17T12:50:59;4.32;;;1.10;;
10715;SDS011;5409;42.620;23.316;2022-09-17T12:53:34;1.38;;;0.95;;
10715;SDS011;5409;42.620;23.316;2022-09-17T12:56:09;2.08;;;1.10;;
10715;SDS011;5409;42.620;23.316;2022-09-17T12:58:56;2.35;;;1.25;;
10715;SDS011;5409;42.620;23.316;2022-09-17T13:01:31;5.00;;;1.15;;
10715;SDS011;5409;42.620;23.316;2022-09-17T13:04:06;0.93;;;0.82;;
10715;SDS011;5409;42.620;23.316;2022-09-17T13:07:02;1.60;;;1.00;;
10715;SDS011;5409;42.620;23.316;2022-09-17T13:10:01;2.00;;;1.20;;
10715;SDS011;5409;42.620;23.316;2022-09-17T13:12:38;3.28;;;1.10;;
10715;SDS011;5409;42.620;23.316;2022-09-17T13:18:13;4.53;;;1.25;;
10715;SDS011;5409;42.620;23.316;2022-09-17T13:20:53;2.00;;;1.60;;
10715;SDS011;5409;42.620;23.316;2022-09-17T13:23:33;1.10;;;1.05;;
10715;SDS011;5409;42.620;23.316;2022-09-17T13:26:03;4.18;;;1.10;;
10715;SDS011;5409;42.620;23.316;2022-09-17T13:28:41;1.60;;;1.00;;
10715;SDS011;5409;42.620;23.316;2022-09-17T13:31:11;2.95;;;1.60;;
10715;SDS011;5409;42.620;23.316;2022-09-17T13:33:51;0.65;;;0.60;;
10715;SDS011;5409;42.620;23.316;2022-09-17T13:39:11;0.70;;;0.60;;
10715;SDS011;5409;42.620;23.316;2022-09-17T13:42:01;2.88;;;0.75;;
10715;SDS011;5409;42.620;23.316;2022-09-17T13:44:33;0.60;;;0.60;;
10715;SDS011;5409;42.620;23.316;2022-09-17T13:47:10;0.85;;;0.70;;
10715;SDS011;5409;42.620;23.316;2022-09-17T13:49:44;2.28;;;0.80;;
10715;SDS011;5409;42.620;23.316;2022-09-17T13:52:22;1.35;;;0.90;;
10715;SDS011;5409;42.620;23.316;2022-09-17T13:54:56;2.58;;;0.80;;
10715;SDS011;5409;42.620;23.316;2022-09-17T13:57:23;0.80;;;0.80;;
10715;SDS011;5409;42.620;23.316;2022-09-17T13:59:53;1.48;;;0.70;;
10715;SDS011;5409;42.620;23.316;2022-09-17T14:08:06;1.23;;;0.65;;
10715;SDS011;5409;42.620;23.316;2022-09-17T14:10:41;1.65;;;0.60;;
10715;SDS011;5409;42.620;23.316;2022-09-17T14:16:30;1.35;;;1.00;;
10715;SDS011;5409;42.620;23.316;2022-09-17T14:19:26;1.23;;;1.00;;
10715;SDS011;5409;42.620;23.316;2022-09-17T14:22:01;3.55;;;1.15;;
10715;SDS011;5409;42.620;23.316;2022-09-17T14:24:44;1.95;;;0.80;;
10715;SDS011;5409;42.620;23.316;2022-09-17T14:27:14;2.35;;;0.90;;
10715;SDS011;5409;42.620;23.316;2022-09-17T14:29:51;0.77;;;0.70;;
10715;SDS011;5409;42.620;23.316;2022-09-17T14:32:29;1.83;;;1.17;;
10715;SDS011;5409;42.620;23.316;2022-09-17T14:35:01;3.53;;;1.60;;
10715;SDS011;5409;42.620;23.316;2022-09-17T14:37:38;1.85;;;1.75;;
10715;SDS011;5409;42.620;23.316;2022-09-17T14:40:07;3.67;;;2.00;;
10715;SDS011;5409;42.620;23.316;2022-09-17T14:42:36;3.05;;;1.60;;
10715;SDS011;5409;42.620;23.316;2022-09-17T14:45:05;2.15;;;1.63;;
10715;SDS011;5409;42.620;23.316;2022-09-17T14:47:38;3.40;;;2.10;;
10715;SDS011;5409;42.620;23.316;2022-09-17T14:50:22;1.55;;;1.30;;
10715;SDS011;5409;42.620;23.316;2022-09-17T14:52:51;1.73;;;1.00;;
10715;SDS011;5409;42.620;23.316;2022-09-17T14:55:20;3.53;;;2.00;;
10715;SDS011;5409;42.620;23.316;2022-09-17T14:57:51;3.38;;;1.77;;
10715;SDS011;5409;42.620;23.316;2022-09-17T15:00:21;4.07;;;1.40;;
10715;SDS011;5409;42.620;23.316;2022-09-17T15:02:50;3.00;;;1.55;;
10715;SDS011;5409;42.620;23.316;2022-09-17T15:05:25;2.70;;;1.08;;
10715;SDS011;5409;42.620;23.316;2022-09-17T15:08:05;6.18;;;1.50;;
10715;SDS011;5409;42.620;23.316;2022-09-17T15:10:47;2.95;;;1.55;;
10715;SDS011;5409;42.620;23.316;2022-09-17T15:13:16;2.28;;;1.23;;
10715;SDS011;5409;42.620;23.316;2022-09-17T15:15:52;1.90;;;0.85;;
10715;SDS011;5409;42.620;23.316;2022-09-17T15:18:29;4.30;;;1.25;;
10715;SDS011;5409;42.620;23.316;2022-09-17T15:21:04;1.23;;;0.80;;
10715;SDS011;5409;42.620;23.316;2022-09-17T15:23:42;1.33;;;1.13;;
10715;SDS011;5409;42.620;23.316;2022-09-17T15:26:10;1.92;;;1.50;;
10715;SDS011;5409;42.620;23.316;2022-09-17T15:28:38;2.05;;;1.33;;
10715;SDS011;5409;42.620;23.316;2022-09-17T15:31:15;1.70;;;1.02;;
10715;SDS011;5409;42.620;23.316;2022-09-17T15:33:43;1.80;;;1.27;;
10715;SDS011;5409;42.620;23.316;2022-09-17T15:36:21;1.20;;;0.90;;
10715;SDS011;5409;42.620;23.316;2022-09-17T15:38:50;4.88;;;1.48;;